This is the latest recevied weather packets stored in our database for station/object K1ZK-13. If no packets are shown the sender has not sent any weather packets the latest 10 day(s).
| Time | Temp. | Humidity | Pressure | Rain* | Wind** | Luminosity | Snow |
|---|---|---|---|---|---|---|---|
| 1777611823 | 6.67° C | 85% | 1010.8 hPa | 0 mm | - | 0 W/m² | - |
| 1777611519 | 6.67° C | 85% | 1010.8 hPa | 0 mm | - | 0 W/m² | - |
| 1777611217 | 6.67° C | 85% | 1010.9 hPa | 0 mm | - | 0 W/m² | - |
| 1777610913 | 6.67° C | 85% | 1010.9 hPa | 0 mm | - | 0 W/m² | - |
| 1777610307 | 6.11° C | 85% | 1010.9 hPa | 0 mm | - | 0 W/m² | - |
| 1777610004 | 6.11° C | 85% | 1010.8 hPa | 0 mm | - | 0 W/m² | - |
| 1777609701 | 6.11° C | 86% | 1010.8 hPa | 0 mm | - | 0 W/m² | - |
| 1777609398 | 6.11° C | 86% | 1011 hPa | 0 mm | - | 0 W/m² | - |
| 1777592083 | 7.78° C | 83% | 1009.7 hPa | 0 mm | - | 4 W/m² | - |
| 1777591781 | 7.78° C | 83% | 1009.6 hPa | 0 mm | - | 4 W/m² | - |
| 1777591476 | 7.78° C | 83% | 1009.7 hPa | 8.89 mm | - | 7 W/m² | - |
| 1777591173 | 8.33° C | 84% | 1009.3 hPa | 8.89 mm | - | 7 W/m² | - |
| 1777565678 | 11.11° C | 95% | 1006.7 hPa | 0 mm | - | 86 W/m² | - |
| 1777565375 | 11.11° C | 95% | 1006.6 hPa | 0 mm | - | 86 W/m² | - |
| 1777565070 | 11.67° C | 95% | 1006.5 hPa | 0 mm | - | 87 W/m² | - |
| 1777564767 | 11.67° C | 94% | 1006.6 hPa | 0 mm | - | 77 W/m² | - |
| 1777564462 | 11.67° C | 93% | 1006.8 hPa | 0 mm | - | 82 W/m² | - |
| 1777564157 | 11.67° C | 93% | 1006.4 hPa | 0 mm | - | 111 W/m² | - |
| 1777563853 | 11.67° C | 94% | 1006.6 hPa | 0 mm | - | 127 W/m² | - |
| 1777563550 | 11.67° C | 93% | 1006.6 hPa | 0 mm | - | 166 W/m² | - |
| 1777563244 | 11.67° C | 93% | 1006.6 hPa | 0 mm | - | 199 W/m² | - |
| 1777562941 | 11.67° C | 93% | 1006.5 hPa | 0 mm | - | 200 W/m² | - |
| 1777562636 | 11.67° C | 93% | 1006.6 hPa | 0 mm | - | 160 W/m² | - |
| 1777562336 | 11.67° C | 94% | 1006.6 hPa | 0 mm | - | 132 W/m² | - |
| 1777562032 | 11.67° C | 93% | 1006.5 hPa | 0 mm | - | 145 W/m² | - |
* Rain latest hour (hover to see other rain measurements)
** Current wind speed in m/s (hover to see current wind gust speed)